Gillett Grove, IA (51341)

12:45 AM CDT on August 28, 2015 (GMT -0500)
Spencer Municipal | | Change Station
CLOSE
Current Station
Airport
Location: Spencer,
Elevation: 1339 ft
Nearby Weather Stations

Elev 1339 ft 43.17 °N, 95.20 °W | Updated 16 minutes ago

Rain
Rain
65 °F
Feels Like 65 °F
N
5
Wind Variable Wind from ESE

Today
High -- | Low -- °F
--% Chance of Precip.
Yesterday
High -- | Low -- °F
Precip. -- in
6:39 AM 8:02 PM
Waxing Gibbous, 96% visible
Pressure 30.02 in
Visibility 5.0 miles
Clouds Overcast 7000 ft
Dew Point 61 °F
Humidity 87%
Rainfall 0.00 in
Snow Depth Not available.
UV 0 out of 12
Pollen 7.70 out of 12
Air Quality Not available.
Flu Activity Not available.
SPECI KSPW 280529Z AUTO 11004KT 5SM -TSRA BR OVC070 18/16 A3002 RMK AO2 LTG DSNT W TSB23 P0010 T01830161
Pressure 30.02 in
Visibility 5.0 miles
Clouds Overcast 7000 ft
Dew Point 61 °F
Humidity 87%
Rainfall 0.00 in
Snow Depth Not available.
UV 0 out of 12
Pollen 7.70 out of 12
Air Quality Not available.
Flu Activity Not available.
SPECI KSPW 280529Z AUTO 11004KT 5SM -TSRA BR OVC070 18/16 A3002 RMK AO2 LTG DSNT W TSB23 P0010 T01830161

10-Day Weather Forecast

×

Almanac

Astronomy

Aug. 28, 2015 Rise Set
Actual Time
Civil Twilight
Nautical Twilight
Astronomical Twilight
Moon
Length of Visible Light
Length of Day
Tomorrow will be .
, % of the Moon is Illuminated

Today's Extremes

State Highs State Lows

Community

WunderPhotos

Upload Photos

1,850,341 photos uploaded!

WunderBlogs® & News

Nearby

Air Quality

  Air Quality AQ Index Pollutant
Not available.

Snow Depth

Station Depth Elevation

Earthquake Activity

City Distance Mag. Time & Date
Minimum magnitude displayed is 2.5.

Coastal Water Temperatures

Place Temperature

Stations

Nearby Weather Stations

Station Location Temp. Windchill Dew Point Humidity Wind Precip. Elev Updated Type